CST,Max TemperatureF,Mean TemperatureF,Min TemperatureF,Max Dew PointF,MeanDew PointF,Min DewpointF,Max Humidity, Mean Humidity, Min Humidity, Max Sea Level PressureIn, Mean Sea Level PressureIn, Min Sea Level PressureIn, Max VisibilityMiles, Mean VisibilityMiles, Min VisibilityMiles, Max Wind SpeedMPH, Mean Wind SpeedMPH, Max Gust SpeedMPH,PrecipitationIn, CloudCover, Events, WindDirDegrees
2012-12-1,37,34,30,36,34,30,100,99,93,30.14,29.91,29.75,3,1,0,12,7,18,0.08,8,Fog-Rain,170
2012-12-2,37,34,32,37,34,32,100,99,93,29.97,29.91,29.77,4,2,0,9,4,,0.00,8,Fog,257
2012-12-3,53,42,32,52,41,32,100,95,75,29.94,29.72,29.55,10,4,0,15,9,28,0.00,7,Fog-Rain,191
2012-12-4,39,30,21,32,20,9,93,68,43,30.25,29.97,29.72,10,9,4,18,10,28,0.00,3,Snow,284
2012-12-5,32,26,21,19,17,14,93,70,55,30.37,30.28,30.12,10,10,7,13,5,16,0.00,4,Snow,165
2012-12-6,35,32,30,34,31,25,100,91,80,29.84,29.77,29.71,10,7,2,14,8,23,0.00,7,Snow,245
2012-12-7,28,26,24,23,21,19,86,78,69,30.00,29.94,29.85,10,10,7,7,4,17,0.00,7,Snow,316
2012-12-8,28,20,12,23,18,9,100,86,69,30.11,30.02,29.97,10,10,5,6,0,,0.00,5,Snow,303
2012-12-9,28,21,14,25,21,10,93,87,74,30.15,29.99,29.77,10,7,2,8,3,,0.00,7,Snow,73
2012-12-10,26,24,21,23,21,18,100,88,74,29.81,29.77,29.73,10,9,4,8,3,,0.00,8,Snow,5
2012-12-11,23,18,14,21,15,10,93,83,74,29.94,29.78,29.71,10,8,3,12,6,18,0.00,8,Snow,221
2012-12-12,35,22,10,27,17,9,93,78,64,30.05,29.97,29.91,10,10,5,15,5,28,0.00,6,Snow,194
2012-12-13,37,34,30,30,23,19,93,66,48,30.09,29.97,29.94,10,9,2,10,6,16,0.01,4,Snow,254
2012-12-14,32,28,24,28,25,23,93,87,75,30.16,30.10,30.01,10,10,10,14,4,21,0.00,7,,140
2012-12-15,35,32,30,34,32,28,100,94,87,30.01,29.72,29.50,10,6,3,14,9,22,0.00,8,Rain-Snow,131
2012-12-16,33,30,28,34,32,27,100,98,93,29.62,29.54,29.48,10,5,0,10,2,9,0.07,8,Fog-Rain-Snow,303
2012-12-17,28,26,23,27,23,21,100,91,86,29.68,29.65,29.62,10,10,7,9,4,,0.00,8,Snow,294
2012-12-18,28,20,12,23,19,10,100,87,74,29.77,29.68,29.64,10,10,10,6,1,,0.00,6,,117
2012-12-19,28,17,6,27,18,3,100,91,85,29.99,29.91,29.77,10,7,2,8,1,,0.00,6,,208
2012-12-20,32,29,26,30,26,23,93,91,80,29.93,29.72,29.57,7,3,1,23,7,36,0.00,8,Snow,6
2012-12-21,26,22,19,23,19,16,100,89,80,30.08,29.95,29.67,10,6,2,24,15,38,0.00,8,Snow,330
2012-12-22,28,14,0,21,11,-4,93,79,55,30.08,29.96,29.84,10,10,10,14,2,23,0.00,3,,264
2012-12-23,21,13,5,19,12,3,93,83,68,30.00,29.97,29.89,10,7,2,17,9,24,0.00,7,Snow,325
2012-12-24,21,16,12,14,12,9,93,84,68,30.10,29.97,29.91,10,8,3,9,2,,0.00,8,Snow,325
2012-12-25,17,3,-13,12,5,-17,92,83,73,30.35,30.27,30.11,10,6,2,7,3,,0.00,5,Snow,331
2012-12-26,21,4,-13,18,6,-18,93,84,74,30.32,30.23,30.18,10,10,4,7,1,,0.00,5,Snow,19
2012-12-27,21,18,15,16,13,12,93,80,68,30.20,30.16,30.11,10,10,4,10,3,,0.00,8,Snow,22
2012-12-28,23,20,17,19,16,14,93,87,80,30.11,30.02,29.92,10,8,2,7,1,,0.00,8,Snow,65
2012-12-29,23,12,1,18,12,-4,93,86,74,30.00,29.93,29.91,10,7,1,7,1,,0.01,7,Snow,273
2012-12-30,23,18,12,16,12,7,86,76,63,30.09,29.95,29.79,10,9,2,9,5,,0.00,3,Snow,211
2012-12-31,21,14,5,18,9,3,92,80,67,30.05,29.94,29.77,10,7,1,15,8,25,0.00,8,Snow,301